sensor_id;sensor_type;location;lat;lon;timestamp;pressure;altitude;pressure_sealevel;temperature;humidity
43119;BME280;28729;49.838;8.650;2022-10-31T00:02:32;100216.34;;;14.91;100.00
43119;BME280;28729;49.838;8.650;2022-10-31T00:06:34;100214.31;;;14.81;100.00
43119;BME280;28729;49.838;8.650;2022-10-31T00:10:42;100222.28;;;14.67;100.00
43119;BME280;28729;49.838;8.650;2022-10-31T00:14:44;100222.06;;;14.42;100.00
43119;BME280;28729;49.838;8.650;2022-10-31T00:18:50;100232.19;;;14.26;100.00
43119;BME280;28729;49.838;8.650;2022-10-31T00:22:52;100227.06;;;14.12;100.00
43119;BME280;28729;49.838;8.650;2022-10-31T00:26:53;100230.91;;;14.06;100.00
43119;BME280;28729;49.838;8.650;2022-10-31T00:31:02;100226.69;;;13.99;100.00
43119;BME280;28729;49.838;8.650;2022-10-31T00:35:06;100234.88;;;13.88;100.00
43119;BME280;28729;49.838;8.650;2022-10-31T00:39:08;100233.16;;;13.82;100.00
43119;BME280;28729;49.838;8.650;2022-10-31T00:43:09;100232.03;;;13.78;100.00
43119;BME280;28729;49.838;8.650;2022-10-31T00:47:12;100237.25;;;13.75;100.00
43119;BME280;28729;49.838;8.650;2022-10-31T00:51:13;100247.75;;;13.73;100.00
43119;BME280;28729;49.838;8.650;2022-10-31T00:55:15;100240.25;;;13.73;100.00
43119;BME280;28729;49.838;8.650;2022-10-31T00:59:17;100248.34;;;13.75;100.00
43119;BME280;28729;49.838;8.650;2022-10-31T01:03:19;100240.53;;;13.72;100.00
43119;BME280;28729;49.838;8.650;2022-10-31T01:07:20;100240.53;;;13.72;100.00
43119;BME280;28729;49.838;8.650;2022-10-31T01:11:22;100252.69;;;13.71;100.00
43119;BME280;28729;49.838;8.650;2022-10-31T01:15:24;100249.38;;;13.68;100.00
43119;BME280;28729;49.838;8.650;2022-10-31T01:19:26;100249.88;;;13.65;100.00
43119;BME280;28729;49.838;8.650;2022-10-31T01:23:31;100248.19;;;13.64;100.00
43119;BME280;28729;49.838;8.650;2022-10-31T01:27:33;100244.59;;;13.64;100.00
43119;BME280;28729;49.838;8.650;2022-10-31T01:31:38;100244.88;;;13.62;100.00
43119;BME280;28729;49.838;8.650;2022-10-31T01:35:40;100247.63;;;13.62;100.00
43119;BME280;28729;49.838;8.650;2022-10-31T01:39:41;100245.94;;;13.61;100.00
43119;BME280;28729;49.838;8.650;2022-10-31T01:47:49;100246.75;;;13.57;100.00
43119;BME280;28729;49.838;8.650;2022-10-31T01:51:55;100238.69;;;13.55;100.00
43119;BME280;28729;49.838;8.650;2022-10-31T01:55:59;100236.19;;;13.54;100.00
43119;BME280;28729;49.838;8.650;2022-10-31T02:00:06;100232.31;;;13.55;100.00
43119;BME280;28729;49.838;8.650;2022-10-31T02:04:15;100225.94;;;13.54;100.00
43119;BME280;28729;49.838;8.650;2022-10-31T02:08:28;100221.81;;;13.57;100.00
43119;BME280;28729;49.838;8.650;2022-10-31T02:12:31;100223.25;;;13.59;100.00
43119;BME280;28729;49.838;8.650;2022-10-31T02:16:34;100221.03;;;13.61;100.00
43119;BME280;28729;49.838;8.650;2022-10-31T02:20:58;100211.06;;;13.60;100.00
43119;BME280;28729;49.838;8.650;2022-10-31T02:25:10;100215.50;;;13.61;100.00
43119;BME280;28729;49.838;8.650;2022-10-31T02:42:29;100205.06;;;13.68;100.00
43119;BME280;28729;49.838;8.650;2022-10-31T02:46:41;100214.19;;;13.69;100.00
43119;BME280;28729;49.838;8.650;2022-10-31T02:51:01;100206.19;;;13.73;100.00
43119;BME280;28729;49.838;8.650;2022-10-31T02:59:25;100206.19;;;13.73;100.00
43119;BME280;28729;49.838;8.650;2022-10-31T03:08:31;100208.16;;;13.50;100.00
43119;BME280;28729;49.838;8.650;2022-10-31T03:12:55;100212.44;;;13.36;100.00
43119;BME280;28729;49.838;8.650;2022-10-31T03:17:02;100220.69;;;13.31;100.00
43119;BME280;28729;49.838;8.650;2022-10-31T03:21:13;100216.81;;;13.32;100.00
43119;BME280;28729;49.838;8.650;2022-10-31T03:25:16;100214.03;;;13.32;100.00
43119;BME280;28729;49.838;8.650;2022-10-31T03:29:24;100210.19;;;13.33;100.00
43119;BME280;28729;49.838;8.650;2022-10-31T03:33:30;100209.69;;;13.36;100.00
43119;BME280;28729;49.838;8.650;2022-10-31T03:37:34;100201.94;;;13.38;100.00
43119;BME280;28729;49.838;8.650;2022-10-31T03:41:41;100205.53;;;13.38;100.00
43119;BME280;28729;49.838;8.650;2022-10-31T03:45:47;100196.16;;;13.39;100.00
43119;BME280;28729;49.838;8.650;2022-10-31T03:49:51;100200.84;;;13.39;100.00
43119;BME280;28729;49.838;8.650;2022-10-31T03:53:56;100187.00;;;13.39;100.00
43119;BME280;28729;49.838;8.650;2022-10-31T03:58:45;100187.84;;;13.39;100.00
43119;BME280;28729;49.838;8.650;2022-10-31T04:02:55;100185.91;;;13.40;100.00
43119;BME280;28729;49.838;8.650;2022-10-31T04:07:02;100175.16;;;13.43;100.00
43119;BME280;28729;49.838;8.650;2022-10-31T04:11:05;100184.03;;;13.45;100.00
43119;BME280;28729;49.838;8.650;2022-10-31T04:15:13;100182.38;;;13.44;100.00
43119;BME280;28729;49.838;8.650;2022-10-31T04:19:15;100182.63;;;13.43;100.00
43119;BME280;28729;49.838;8.650;2022-10-31T04:23:24;100189.78;;;13.39;100.00
43119;BME280;28729;49.838;8.650;2022-10-31T04:27:27;100195.84;;;13.36;100.00
43119;BME280;28729;49.838;8.650;2022-10-31T04:31:29;100198.84;;;13.34;100.00
43119;BME280;28729;49.838;8.650;2022-10-31T04:35:31;100189.13;;;13.32;100.00
43119;BME280;28729;49.838;8.650;2022-10-31T04:39:33;100190.22;;;13.31;100.00
43119;BME280;28729;49.838;8.650;2022-10-31T04:44:07;100194.94;;;13.30;100.00
43119;BME280;28729;49.838;8.650;2022-10-31T04:48:09;100188.56;;;13.30;100.00
43119;BME280;28729;49.838;8.650;2022-10-31T04:52:13;100194.34;;;13.28;100.00
43119;BME280;28729;49.838;8.650;2022-10-31T04:56:15;100199.63;;;13.30;100.00
43119;BME280;28729;49.838;8.650;2022-10-31T05:00:21;100199.88;;;13.28;100.00
43119;BME280;28729;49.838;8.650;2022-10-31T05:04:24;100197.84;;;13.23;100.00
43119;BME280;28729;49.838;8.650;2022-10-31T05:08:27;100192.00;;;13.20;100.00
43119;BME280;28729;49.838;8.650;2022-10-31T05:12:30;100193.31;;;13.12;100.00
43119;BME280;28729;49.838;8.650;2022-10-31T05:16:52;100192.09;;;13.03;100.00
43119;BME280;28729;49.838;8.650;2022-10-31T05:21:16;100193.94;;;12.97;100.00
43119;BME280;28729;49.838;8.650;2022-10-31T05:25:26;100192.97;;;12.87;100.00
43119;BME280;28729;49.838;8.650;2022-10-31T05:29:28;100182.28;;;12.73;100.00
43119;BME280;28729;49.838;8.650;2022-10-31T05:33:29;100186.63;;;12.69;100.00
43119;BME280;28729;49.838;8.650;2022-10-31T05:37:51;100193.50;;;12.67;100.00
43119;BME280;28729;49.838;8.650;2022-10-31T05:41:53;100189.25;;;12.59;100.00
43119;BME280;28729;49.838;8.650;2022-10-31T05:46:00;100192.53;;;12.56;100.00
43119;BME280;28729;49.838;8.650;2022-10-31T05:50:21;100192.72;;;12.49;100.00
43119;BME280;28729;49.838;8.650;2022-10-31T05:54:31;100193.38;;;12.40;100.00
43119;BME280;28729;49.838;8.650;2022-10-31T05:58:33;100188.28;;;12.31;100.00
43119;BME280;28729;49.838;8.650;2022-10-31T06:02:38;100188.13;;;12.21;100.00
43119;BME280;28729;49.838;8.650;2022-10-31T06:06:49;100191.03;;;12.15;100.00
43119;BME280;28729;49.838;8.650;2022-10-31T06:10:51;100186.03;;;12.12;100.00
43119;BME280;28729;49.838;8.650;2022-10-31T06:15:08;100189.03;;;12.10;100.00
43119;BME280;28729;49.838;8.650;2022-10-31T06:19:09;100195.16;;;12.12;100.00
43119;BME280;28729;49.838;8.650;2022-10-31T06:23:11;100181.34;;;12.12;100.00
43119;BME280;28729;49.838;8.650;2022-10-31T06:27:15;100185.44;;;12.09;100.00
43119;BME280;28729;49.838;8.650;2022-10-31T06:31:17;100183.00;;;12.13;100.00
43119;BME280;28729;49.838;8.650;2022-10-31T06:35:20;100185.84;;;12.18;100.00
43119;BME280;28729;49.838;8.650;2022-10-31T06:39:25;100184.34;;;12.27;100.00
43119;BME280;28729;49.838;8.650;2022-10-31T06:43:27;100185.53;;;12.31;100.00
43119;BME280;28729;49.838;8.650;2022-10-31T06:47:56;100193.88;;;12.37;100.00
43119;BME280;28729;49.838;8.650;2022-10-31T06:52:40;100185.66;;;12.42;100.00
43119;BME280;28729;49.838;8.650;2022-10-31T06:56:45;100187.41;;;12.48;100.00
43119;BME280;28729;49.838;8.650;2022-10-31T07:00:47;100199.72;;;12.57;100.00
43119;BME280;28729;49.838;8.650;2022-10-31T07:04:50;100192.94;;;12.65;100.00
43119;BME280;28729;49.838;8.650;2022-10-31T07:08:52;100191.66;;;12.72;100.00
43119;BME280;28729;49.838;8.650;2022-10-31T07:12:59;100200.63;;;12.80;100.00
43119;BME280;28729;49.838;8.650;2022-10-31T07:17:04;100191.59;;;12.89;100.00
43119;BME280;28729;49.838;8.650;2022-10-31T07:21:09;100205.00;;;12.97;100.00
43119;BME280;28729;49.838;8.650;2022-10-31T07:25:11;100195.91;;;13.02;100.00
43119;BME280;28729;49.838;8.650;2022-10-31T07:29:39;100199.88;;;13.06;100.00
43119;BME280;28729;49.838;8.650;2022-10-31T07:33:42;100196.06;;;13.12;100.00
43119;BME280;28729;49.838;8.650;2022-10-31T07:38:09;100198.88;;;13.17;100.00
43119;BME280;28729;49.838;8.650;2022-10-31T07:42:11;100204.25;;;13.24;100.00
43119;BME280;28729;49.838;8.650;2022-10-31T07:46:17;100204.66;;;13.33;100.00
43119;BME280;28729;49.838;8.650;2022-10-31T07:50:39;100201.94;;;13.38;100.00
43119;BME280;28729;49.838;8.650;2022-10-31T07:55:00;100197.06;;;13.45;100.00
43119;BME280;28729;49.838;8.650;2022-10-31T07:59:02;100193.56;;;13.55;100.00
43119;BME280;28729;49.838;8.650;2022-10-31T08:03:06;100191.97;;;13.64;100.00
43119;BME280;28729;49.838;8.650;2022-10-31T08:07:47;100200.41;;;13.74;100.00
43119;BME280;28729;49.838;8.650;2022-10-31T08:11:54;100183.06;;;13.84;100.00
43119;BME280;28729;49.838;8.650;2022-10-31T08:15:57;100182.91;;;14.01;100.00
43119;BME280;28729;49.838;8.650;2022-10-31T08:20:08;100179.78;;;14.24;100.00
43119;BME280;28729;49.838;8.650;2022-10-31T08:24:17;100178.03;;;14.50;100.00
43119;BME280;28729;49.838;8.650;2022-10-31T08:28:20;100182.44;;;14.84;100.00
43119;BME280;28729;49.838;8.650;2022-10-31T08:32:24;100175.72;;;15.27;100.00
43119;BME280;28729;49.838;8.650;2022-10-31T08:37:04;100177.22;;;15.65;100.00
43119;BME280;28729;49.838;8.650;2022-10-31T08:41:20;100172.53;;;15.86;100.00
43119;BME280;28729;49.838;8.650;2022-10-31T08:45:22;100171.44;;;16.03;100.00
43119;BME280;28729;49.838;8.650;2022-10-31T08:49:24;100165.06;;;16.12;100.00
43119;BME280;28729;49.838;8.650;2022-10-31T08:53:27;100154.19;;;16.31;100.00
43119;BME280;28729;49.838;8.650;2022-10-31T08:57:56;100156.41;;;16.50;100.00
43119;BME280;28729;49.838;8.650;2022-10-31T09:02:07;100147.19;;;16.59;100.00
43119;BME280;28729;49.838;8.650;2022-10-31T09:06:10;100148.84;;;16.71;100.00
43119;BME280;28729;49.838;8.650;2022-10-31T09:10:11;100147.16;;;16.80;100.00
43119;BME280;28729;49.838;8.650;2022-10-31T09:14:13;100161.09;;;16.80;100.00
43119;BME280;28729;49.838;8.650;2022-10-31T09:18:17;100163.03;;;16.79;100.00
43119;BME280;28729;49.838;8.650;2022-10-31T09:22:31;100165.25;;;16.93;100.00
43119;BME280;28729;49.838;8.650;2022-10-31T09:26:33;100155.13;;;17.12;100.00
43119;BME280;28729;49.838;8.650;2022-10-31T09:30:48;100152.53;;;17.31;100.00
43119;BME280;28729;49.838;8.650;2022-10-31T09:34:57;100148.53;;;17.52;100.00
43119;BME280;28729;49.838;8.650;2022-10-31T09:38:59;100148.09;;;17.74;100.00
43119;BME280;28729;49.838;8.650;2022-10-31T09:48:01;100149.91;;;17.99;100.00
43119;BME280;28729;49.838;8.650;2022-10-31T09:52:22;100145.44;;;17.98;100.00
43119;BME280;28729;49.838;8.650;2022-10-31T09:56:27;100141.28;;;17.96;100.00
43119;BME280;28729;49.838;8.650;2022-10-31T10:00:34;100142.97;;;17.97;100.00
43119;BME280;28729;49.838;8.650;2022-10-31T10:08:53;100141.53;;;17.99;100.00
43119;BME280;28729;49.838;8.650;2022-10-31T10:26:23;100131.81;;;17.97;100.00
43119;BME280;28729;49.838;8.650;2022-10-31T10:30:39;100137.75;;;18.14;100.00
43119;BME280;28729;49.838;8.650;2022-10-31T10:34:50;100123.72;;;18.30;100.00
43119;BME280;28729;49.838;8.650;2022-10-31T10:39:23;100121.75;;;18.30;100.00
43119;BME280;28729;49.838;8.650;2022-10-31T10:43:33;100121.88;;;18.44;100.00
43119;BME280;28729;49.838;8.650;2022-10-31T10:47:49;100105.00;;;18.59;100.00
43119;BME280;28729;49.838;8.650;2022-10-31T10:52:05;100104.84;;;18.70;100.00
43119;BME280;28729;49.838;8.650;2022-10-31T10:56:39;100105.91;;;18.79;100.00
43119;BME280;28729;49.838;8.650;2022-10-31T11:00:44;100107.81;;;18.83;100.00
43119;BME280;28729;49.838;8.650;2022-10-31T11:04:51;100089.44;;;19.01;100.00
43119;BME280;28729;49.838;8.650;2022-10-31T11:08:55;100086.44;;;19.17;100.00
43119;BME280;28729;49.838;8.650;2022-10-31T11:13:03;100075.03;;;19.32;100.00
43119;BME280;28729;49.838;8.650;2022-10-31T11:21:29;100072.88;;;19.67;100.00
43119;BME280;28729;49.838;8.650;2022-10-31T11:25:33;100050.78;;;19.84;100.00
43119;BME280;28729;49.838;8.650;2022-10-31T11:29:35;100047.50;;;20.10;100.00
43119;BME280;28729;49.838;8.650;2022-10-31T11:33:46;100029.53;;;20.30;98.33
43119;BME280;28729;49.838;8.650;2022-10-31T11:37:50;100037.19;;;20.52;97.11
43119;BME280;28729;49.838;8.650;2022-10-31T11:41:54;100033.81;;;20.82;94.46
43119;BME280;28729;49.838;8.650;2022-10-31T11:45:56;100022.06;;;20.94;94.13
43119;BME280;28729;49.838;8.650;2022-10-31T11:50:02;100007.91;;;21.13;93.24
43119;BME280;28729;49.838;8.650;2022-10-31T11:54:25;100006.53;;;21.24;89.79
43119;BME280;28729;49.838;8.650;2022-10-31T11:58:29;100005.25;;;21.30;89.82
43119;BME280;28729;49.838;8.650;2022-10-31T12:02:33;100004.44;;;21.30;88.17
43119;BME280;28729;49.838;8.650;2022-10-31T12:06:45;100000.59;;;21.26;86.56
43119;BME280;28729;49.838;8.650;2022-10-31T12:11:39;99997.28;;;21.24;84.72
43119;BME280;28729;49.838;8.650;2022-10-31T12:15:47;99996.63;;;21.41;85.43
43119;BME280;28729;49.838;8.650;2022-10-31T12:20:16;99996.13;;;21.61;83.54
43119;BME280;28729;49.838;8.650;2022-10-31T12:28:48;100000.75;;;21.88;80.69
43119;BME280;28729;49.838;8.650;2022-10-31T12:41:45;99972.56;;;21.39;81.96
43119;BME280;28729;49.838;8.650;2022-10-31T12:45:55;99962.81;;;21.37;82.87
43119;BME280;28729;49.838;8.650;2022-10-31T12:50:12;99953.47;;;21.28;82.39
43119;BME280;28729;49.838;8.650;2022-10-31T12:58:58;99925.13;;;21.07;83.22
43119;BME280;28729;49.838;8.650;2022-10-31T13:04:30;99917.34;;;21.04;83.53
43119;BME280;28729;49.838;8.650;2022-10-31T13:08:18;99900.03;;;21.02;82.69
43119;BME280;28729;49.838;8.650;2022-10-31T13:12:22;99899.91;;;21.07;83.57
43119;BME280;28729;49.838;8.650;2022-10-31T13:16:26;99898.38;;;21.01;82.61
43119;BME280;28729;49.838;8.650;2022-10-31T13:20:33;99897.66;;;20.95;82.36
43119;BME280;28729;49.838;8.650;2022-10-31T13:24:42;99901.56;;;21.08;83.03
43119;BME280;28729;49.838;8.650;2022-10-31T13:28:57;99894.19;;;21.12;83.19
43119;BME280;28729;49.838;8.650;2022-10-31T13:33:07;99889.44;;;20.99;84.04
43119;BME280;28729;49.838;8.650;2022-10-31T13:37:33;99883.34;;;20.97;85.33
43119;BME280;28729;49.838;8.650;2022-10-31T13:46:22;99874.41;;;20.72;87.12
43119;BME280;28729;49.838;8.650;2022-10-31T13:50:27;99863.44;;;20.62;88.23
43119;BME280;28729;49.838;8.650;2022-10-31T13:54:34;99850.50;;;20.52;88.78
43119;BME280;28729;49.838;8.650;2022-10-31T13:58:36;99849.56;;;20.43;89.99
43119;BME280;28729;49.838;8.650;2022-10-31T14:02:45;99841.72;;;20.31;91.07
43119;BME280;28729;49.838;8.650;2022-10-31T14:06:54;99835.53;;;20.20;92.19
43119;BME280;28729;49.838;8.650;2022-10-31T14:10:58;99825.38;;;20.11;93.03
43119;BME280;28729;49.838;8.650;2022-10-31T14:15:19;99816.47;;;20.09;94.19
43119;BME280;28729;49.838;8.650;2022-10-31T14:19:24;99807.75;;;20.10;93.48
43119;BME280;28729;49.838;8.650;2022-10-31T14:27:34;99863.06;;;20.27;90.26
43119;BME280;28729;49.838;8.650;2022-10-31T14:31:39;99865.00;;;20.40;88.29
43119;BME280;28729;49.838;8.650;2022-10-31T14:36:07;99862.41;;;20.58;86.78
43119;BME280;28729;49.838;8.650;2022-10-31T14:49:32;99858.50;;;20.59;86.05
43119;BME280;28729;49.838;8.650;2022-10-31T14:53:49;99848.78;;;20.29;88.11
43119;BME280;28729;49.838;8.650;2022-10-31T14:57:55;99864.84;;;19.95;89.85
43119;BME280;28729;49.838;8.650;2022-10-31T15:02:02;99858.63;;;19.71;91.96
43119;BME280;28729;49.838;8.650;2022-10-31T15:06:17;99854.72;;;19.39;93.99
43119;BME280;28729;49.838;8.650;2022-10-31T15:14:30;99840.09;;;18.82;97.87
43119;BME280;28729;49.838;8.650;2022-10-31T15:18:32;99834.88;;;18.56;99.57
43119;BME280;28729;49.838;8.650;2022-10-31T15:22:34;99832.91;;;18.38;100.00
43119;BME280;28729;49.838;8.650;2022-10-31T15:26:38;99835.09;;;18.22;100.00
43119;BME280;28729;49.838;8.650;2022-10-31T15:30:50;99833.41;;;18.02;100.00
43119;BME280;28729;49.838;8.650;2022-10-31T15:34:54;99842.28;;;17.85;100.00
43119;BME280;28729;49.838;8.650;2022-10-31T15:38:57;99824.25;;;17.72;100.00
43119;BME280;28729;49.838;8.650;2022-10-31T15:43:01;99822.75;;;17.61;100.00
43119;BME280;28729;49.838;8.650;2022-10-31T15:47:12;99811.69;;;17.51;100.00
43119;BME280;28729;49.838;8.650;2022-10-31T15:51:26;99811.22;;;17.44;100.00
43119;BME280;28729;49.838;8.650;2022-10-31T15:55:29;99805.16;;;17.37;100.00
43119;BME280;28729;49.838;8.650;2022-10-31T15:59:34;99799.13;;;17.29;100.00
43119;BME280;28729;49.838;8.650;2022-10-31T16:03:36;99781.09;;;17.22;100.00
43119;BME280;28729;49.838;8.650;2022-10-31T16:07:48;99765.06;;;17.14;100.00
43119;BME280;28729;49.838;8.650;2022-10-31T16:11:50;99752.91;;;17.04;100.00
43119;BME280;28729;49.838;8.650;2022-10-31T16:15:56;99740.97;;;16.99;100.00
43119;BME280;28729;49.838;8.650;2022-10-31T16:20:21;99713.47;;;16.92;100.00
43119;BME280;28729;49.838;8.650;2022-10-31T16:24:30;99649.00;;;16.85;100.00
43119;BME280;28729;49.838;8.650;2022-10-31T16:28:32;99616.81;;;16.74;100.00
43119;BME280;28729;49.838;8.650;2022-10-31T16:32:53;99603.84;;;16.64;100.00
43119;BME280;28729;49.838;8.650;2022-10-31T16:36:55;99639.78;;;16.60;100.00
43119;BME280;28729;49.838;8.650;2022-10-31T16:40:57;99656.34;;;16.71;100.00
43119;BME280;28729;49.838;8.650;2022-10-31T16:44:59;99674.97;;;16.75;100.00
43119;BME280;28729;49.838;8.650;2022-10-31T16:49:01;99687.50;;;16.78;100.00
43119;BME280;28729;49.838;8.650;2022-10-31T16:53:03;99684.41;;;16.74;100.00
43119;BME280;28729;49.838;8.650;2022-10-31T16:57:26;99673.34;;;16.69;100.00
43119;BME280;28729;49.838;8.650;2022-10-31T17:01:29;99667.28;;;16.62;100.00
43119;BME280;28729;49.838;8.650;2022-10-31T17:05:32;99673.19;;;16.55;100.00
43119;BME280;28729;49.838;8.650;2022-10-31T17:09:34;99707.16;;;16.52;100.00
43119;BME280;28729;49.838;8.650;2022-10-31T17:13:35;99739.72;;;16.52;100.00
43119;BME280;28729;49.838;8.650;2022-10-31T17:17:37;99740.19;;;16.59;100.00
43119;BME280;28729;49.838;8.650;2022-10-31T17:21:40;99757.47;;;16.56;100.00
43119;BME280;28729;49.838;8.650;2022-10-31T17:25:42;99745.81;;;16.54;100.00
43119;BME280;28729;49.838;8.650;2022-10-31T17:29:44;99717.47;;;16.52;100.00
43119;BME280;28729;49.838;8.650;2022-10-31T17:33:46;99700.81;;;16.47;100.00
43119;BME280;28729;49.838;8.650;2022-10-31T17:37:49;99682.28;;;16.37;100.00
43119;BME280;28729;49.838;8.650;2022-10-31T17:41:51;99700.41;;;16.29;100.00
43119;BME280;28729;49.838;8.650;2022-10-31T17:45:53;99714.38;;;16.19;100.00
43119;BME280;28729;49.838;8.650;2022-10-31T17:49:55;99697.78;;;16.09;100.00
43119;BME280;28729;49.838;8.650;2022-10-31T17:53:57;99676.78;;;15.92;100.00
43119;BME280;28729;49.838;8.650;2022-10-31T17:57:59;99672.16;;;15.78;100.00
43119;BME280;28729;49.838;8.650;2022-10-31T18:02:00;99671.91;;;15.64;100.00
43119;BME280;28729;49.838;8.650;2022-10-31T18:06:04;99672.84;;;15.49;100.00
43119;BME280;28729;49.838;8.650;2022-10-31T18:10:06;99662.09;;;15.32;100.00
43119;BME280;28729;49.838;8.650;2022-10-31T18:14:09;99671.59;;;15.21;100.00
43119;BME280;28729;49.838;8.650;2022-10-31T18:18:11;99676.06;;;15.12;100.00
43119;BME280;28729;49.838;8.650;2022-10-31T18:22:12;99683.84;;;15.04;100.00
43119;BME280;28729;49.838;8.650;2022-10-31T18:26:14;99686.38;;;14.96;100.00
43119;BME280;28729;49.838;8.650;2022-10-31T18:30:15;99695.00;;;14.84;100.00
43119;BME280;28729;49.838;8.650;2022-10-31T18:34:19;99692.81;;;14.76;100.00
43119;BME280;28729;49.838;8.650;2022-10-31T18:38:22;99690.03;;;14.71;100.00
43119;BME280;28729;49.838;8.650;2022-10-31T18:42:23;99693.38;;;14.63;100.00
43119;BME280;28729;49.838;8.650;2022-10-31T18:46:26;99703.38;;;14.58;100.00
43119;BME280;28729;49.838;8.650;2022-10-31T18:50:28;99702.81;;;14.51;100.00
43119;BME280;28729;49.838;8.650;2022-10-31T18:54:29;99714.16;;;14.45;100.00
43119;BME280;28729;49.838;8.650;2022-10-31T18:58:31;99712.78;;;14.37;100.00
43119;BME280;28729;49.838;8.650;2022-10-31T19:02:33;99714.44;;;14.33;100.00
43119;BME280;28729;49.838;8.650;2022-10-31T19:06:34;99728.03;;;14.29;100.00
43119;BME280;28729;49.838;8.650;2022-10-31T19:10:37;99737.19;;;14.25;100.00
43119;BME280;28729;49.838;8.650;2022-10-31T19:14:39;99740.47;;;14.22;100.00
43119;BME280;28729;49.838;8.650;2022-10-31T19:18:42;99742.41;;;14.21;100.00
43119;BME280;28729;49.838;8.650;2022-10-31T19:22:43;99736.63;;;14.23;100.00
43119;BME280;28729;49.838;8.650;2022-10-31T19:26:45;99726.63;;;14.27;100.00
43119;BME280;28729;49.838;8.650;2022-10-31T19:30:52;99738.28;;;14.29;100.00
43119;BME280;28729;49.838;8.650;2022-10-31T19:34:54;99728.31;;;14.28;100.00
43119;BME280;28729;49.838;8.650;2022-10-31T19:38:56;99728.31;;;14.28;100.00
43119;BME280;28729;49.838;8.650;2022-10-31T19:42:57;99730.53;;;14.26;100.00
43119;BME280;28729;49.838;8.650;2022-10-31T19:46:59;99731.91;;;14.28;100.00
43119;BME280;28729;49.838;8.650;2022-10-31T19:51:04;99728.31;;;14.28;100.00
43119;BME280;28729;49.838;8.650;2022-10-31T19:55:06;99729.97;;;14.29;100.00
43119;BME280;28729;49.838;8.650;2022-10-31T19:59:08;99736.63;;;14.28;100.00
43119;BME280;28729;49.838;8.650;2022-10-31T20:03:10;99720.00;;;14.28;100.00
43119;BME280;28729;49.838;8.650;2022-10-31T20:07:12;99733.84;;;14.28;100.00
43119;BME280;28729;49.838;8.650;2022-10-31T20:11:14;99732.47;;;14.25;100.00
43119;BME280;28729;49.838;8.650;2022-10-31T20:15:15;99746.03;;;14.22;100.00
43119;BME280;28729;49.838;8.650;2022-10-31T20:19:17;99741.03;;;14.19;100.00
43119;BME280;28729;49.838;8.650;2022-10-31T20:23:19;99733.28;;;14.16;100.00
43119;BME280;28729;49.838;8.650;2022-10-31T20:27:21;99725.50;;;14.12;100.00
43119;BME280;28729;49.838;8.650;2022-10-31T20:31:25;99740.47;;;14.11;100.00
43119;BME280;28729;49.838;8.650;2022-10-31T20:35:27;99738.25;;;14.08;100.00
43119;BME280;28729;49.838;8.650;2022-10-31T20:39:29;99715.25;;;14.08;100.00
43119;BME280;28729;49.838;8.650;2022-10-31T20:43:31;99732.44;;;14.05;100.00
43119;BME280;28729;49.838;8.650;2022-10-31T20:47:33;99718.31;;;14.01;100.00
43119;BME280;28729;49.838;8.650;2022-10-31T20:51:35;99712.47;;;13.98;100.00
43119;BME280;28729;49.838;8.650;2022-10-31T20:55:37;99703.06;;;13.94;100.00
43119;BME280;28729;49.838;8.650;2022-10-31T20:59:38;99698.88;;;13.91;100.00
43119;BME280;28729;49.838;8.650;2022-10-31T21:03:42;99701.94;;;13.89;100.00
43119;BME280;28729;49.838;8.650;2022-10-31T21:07:44;99696.09;;;13.86;100.00
43119;BME280;28729;49.838;8.650;2022-10-31T21:11:46;99696.66;;;13.83;100.00
43119;BME280;28729;49.838;8.650;2022-10-31T21:15:58;99685.56;;;13.83;100.00
43119;BME280;28729;49.838;8.650;2022-10-31T21:20:05;99690.28;;;13.82;100.00
43119;BME280;28729;49.838;8.650;2022-10-31T21:24:11;99688.63;;;13.81;100.00
43119;BME280;28729;49.838;8.650;2022-10-31T21:28:14;99688.63;;;13.81;100.00
43119;BME280;28729;49.838;8.650;2022-10-31T21:32:16;99684.47;;;13.84;100.00
43119;BME280;28729;49.838;8.650;2022-10-31T21:36:17;99683.38;;;13.85;100.00
43119;BME280;28729;49.838;8.650;2022-10-31T21:40:19;99695.56;;;13.89;100.00
43119;BME280;28729;49.838;8.650;2022-10-31T21:44:20;99696.69;;;13.93;100.00
43119;BME280;28729;49.838;8.650;2022-10-31T21:48:22;99682.00;;;13.98;100.00
43119;BME280;28729;49.838;8.650;2022-10-31T21:52:29;99671.78;;;13.98;100.00
43119;BME280;28729;49.838;8.650;2022-10-31T21:56:32;99663.16;;;14.00;100.00
43119;BME280;28729;49.838;8.650;2022-10-31T22:00:34;99652.38;;;13.98;100.00
43119;BME280;28729;49.838;8.650;2022-10-31T22:04:37;99638.78;;;14.02;100.00
43119;BME280;28729;49.838;8.650;2022-10-31T22:08:41;99632.69;;;14.05;100.00
43119;BME280;28729;49.838;8.650;2022-10-31T22:12:43;99621.06;;;14.08;100.00
43119;BME280;28729;49.838;8.650;2022-10-31T22:16:45;99621.06;;;14.13;100.00
43119;BME280;28729;49.838;8.650;2022-10-31T22:20:47;99623.00;;;14.18;100.00
43119;BME280;28729;49.838;8.650;2022-10-31T22:24:49;99637.41;;;14.25;100.00
43119;BME280;28729;49.838;8.650;2022-10-31T22:28:52;99640.72;;;14.32;100.00
43119;BME280;28729;49.838;8.650;2022-10-31T22:32:56;99626.00;;;14.36;100.00
43119;BME280;28729;49.838;8.650;2022-10-31T22:36:57;99638.22;;;14.41;100.00
43119;BME280;28729;49.838;8.650;2022-10-31T22:41:02;99633.50;;;14.41;100.00
43119;BME280;28729;49.838;8.650;2022-10-31T22:45:04;99637.66;;;14.39;100.00
43119;BME280;28729;49.838;8.650;2022-10-31T22:49:11;99639.03;;;14.36;100.00
43119;BME280;28729;49.838;8.650;2022-10-31T22:53:14;99639.59;;;14.33;100.00
43119;BME280;28729;49.838;8.650;2022-10-31T22:57:17;99643.50;;;14.32;100.00